Página principal
METAR-TAF:

METAR-TAF

Aeroportos :

Brunei, Brunei

latitude: 04-56N, longitude: 114-56E, altura: 22 m

Observação actual do tempo

O boletim foi feito há 30 minutos, às 17:00 UTC
Vento 3 kt de nor-nordeste
Temperatura 27°C
Humidade 89%
Pressão 1010 hPa
Visibilidade: 8000 m
Poucas nuvensa uma altura de 1500 ft
Nuvens fragmentadasa uma altura de 14000 ft

METAR: WBSB 201700Z 03003KT 8000 FEW015 BKN140 27/25 Q1010 NOSIG

Hora: 01:30 (17:30 UTC)

Previsão

O boletim foi feito há 6 horas e 40 minutos, às 10:50 UTC
Previsão válida de 20 às 12 UTC a 21 às 18 UTC
Vento 8 kt de nor-nordeste
Visibilidade: 8000 m
Poucas nuvensa uma altura de 1400 ft
Tornando-se
de 20 às 19 UTC a 20 às 21 UTC
Vento 2 kt de su-sudoeste
Tornando-se
de 21 às 03 UTC a 21 às 05 UTC
Vento 9 kt de nor-noroeste
Nuvens dispersasa uma altura de 1600 ft
Poucas nuvensa uma altura de 1700 ft, Cumulonimbus.

TAF: WBSB 201050Z 2012/2118 02008KT 8000 FEW014 BECMG 2019/2021 21002KT BECMG 2103/2105 34009KT SCT016 FEW017CB

Observações e previsões do tempo de mais de 4000 aeroportos (mensagens METAR e TAF).

As estações disponíveis são os pontos amarelos e vermelhos sobre o mapa.

Mova o rato sobre o mapa para ver o nome da estação.

Depois clique no ponto para visualizar as observações e previsões meteorológicas.

Para alterar o mapa : clique nos botões verdes com uma cruz preta para aumentar o zoom; no botão verde com uma pitada de zoom; ou nas setas verdes para mapas adjacentes.


METAR-TAF: